sensor_id;sensor_type;location;lat;lon;timestamp;pressure;altitude;pressure_sealevel;temperature;humidity
17072;BME280;7731;50.720;6.912;2023-06-26T00:01:12;99817.69;;;21.74;77.63
17072;BME280;7731;50.720;6.912;2023-06-26T00:03:48;99816.47;;;21.60;78.82
17072;BME280;7731;50.720;6.912;2023-06-26T00:06:18;99812.78;;;21.45;80.72
17072;BME280;7731;50.720;6.912;2023-06-26T00:08:52;99808.00;;;21.40;80.09
17072;BME280;7731;50.720;6.912;2023-06-26T00:11:23;99811.28;;;21.42;79.85
17072;BME280;7731;50.720;6.912;2023-06-26T00:13:54;99814.50;;;21.36;80.00
17072;BME280;7731;50.720;6.912;2023-06-26T00:16:28;99813.81;;;21.26;81.10
17072;BME280;7731;50.720;6.912;2023-06-26T00:18:58;99808.19;;;21.20;82.34
17072;BME280;7731;50.720;6.912;2023-06-26T00:21:29;99808.78;;;21.32;79.71
17072;BME280;7731;50.720;6.912;2023-06-26T00:24:01;99814.97;;;21.31;82.62
17072;BME280;7731;50.720;6.912;2023-06-26T00:26:31;99809.41;;;21.08;85.26
17072;BME280;7731;50.720;6.912;2023-06-26T00:29:02;99810.19;;;21.27;82.64
17072;BME280;7731;50.720;6.912;2023-06-26T00:31:39;99807.19;;;21.39;78.85
17072;BME280;7731;50.720;6.912;2023-06-26T00:34:12;99806.66;;;21.54;76.43
17072;BME280;7731;50.720;6.912;2023-06-26T00:36:46;99807.16;;;21.57;75.34
17072;BME280;7731;50.720;6.912;2023-06-26T00:39:17;99802.28;;;21.63;74.58
17072;BME280;7731;50.720;6.912;2023-06-26T00:41:50;99799.97;;;21.60;73.57
17072;BME280;7731;50.720;6.912;2023-06-26T00:44:21;99800.34;;;21.73;70.88
17072;BME280;7731;50.720;6.912;2023-06-26T00:46:54;99803.34;;;21.78;69.84
17072;BME280;7731;50.720;6.912;2023-06-26T00:49:25;99807.31;;;21.90;68.02
17072;BME280;7731;50.720;6.912;2023-06-26T00:51:58;99795.34;;;21.80;67.35
17072;BME280;7731;50.720;6.912;2023-06-26T00:54:31;99794.19;;;21.82;67.26
17072;BME280;7731;50.720;6.912;2023-06-26T00:57:02;99792.19;;;21.76;66.02
17072;BME280;7731;50.720;6.912;2023-06-26T00:59:33;99793.25;;;21.91;65.23
17072;BME280;7731;50.720;6.912;2023-06-26T01:02:06;99786.63;;;21.71;65.99
17072;BME280;7731;50.720;6.912;2023-06-26T01:04:38;99789.81;;;21.91;65.15
17072;BME280;7731;50.720;6.912;2023-06-26T01:07:16;99788.94;;;21.74;67.09
17072;BME280;7731;50.720;6.912;2023-06-26T01:09:56;99783.22;;;21.79;66.98
17072;BME280;7731;50.720;6.912;2023-06-26T01:12:26;99787.53;;;21.53;69.15
17072;BME280;7731;50.720;6.912;2023-06-26T01:15:04;99773.88;;;21.68;66.92
17072;BME280;7731;50.720;6.912;2023-06-26T01:17:38;99773.22;;;21.66;66.32
17072;BME280;7731;50.720;6.912;2023-06-26T01:20:16;99769.59;;;21.67;66.48
17072;BME280;7731;50.720;6.912;2023-06-26T01:23:05;99768.00;;;21.66;66.30
17072;BME280;7731;50.720;6.912;2023-06-26T01:25:51;99770.59;;;21.66;66.70
17072;BME280;7731;50.720;6.912;2023-06-26T01:28:30;99769.81;;;21.73;66.04
17072;BME280;7731;50.720;6.912;2023-06-26T01:31:03;99767.03;;;21.75;65.25
17072;BME280;7731;50.720;6.912;2023-06-26T01:33:35;99761.91;;;21.65;65.05
17072;BME280;7731;50.720;6.912;2023-06-26T01:36:07;99757.84;;;21.63;65.36
17072;BME280;7731;50.720;6.912;2023-06-26T01:38:37;99757.72;;;21.46;66.09
17072;BME280;7731;50.720;6.912;2023-06-26T01:41:14;99755.50;;;21.51;66.28
17072;BME280;7731;50.720;6.912;2023-06-26T01:44:08;99751.69;;;21.80;63.60
17072;BME280;7731;50.720;6.912;2023-06-26T01:46:49;99753.34;;;21.81;62.96
17072;BME280;7731;50.720;6.912;2023-06-26T01:49:36;99756.06;;;21.71;63.73
17072;BME280;7731;50.720;6.912;2023-06-26T01:52:14;99757.53;;;21.66;63.61
17072;BME280;7731;50.720;6.912;2023-06-26T01:55:05;99754.22;;;21.55;63.85
17072;BME280;7731;50.720;6.912;2023-06-26T01:57:42;99754.94;;;21.74;62.83
17072;BME280;7731;50.720;6.912;2023-06-26T02:00:19;99759.16;;;21.67;62.67
17072;BME280;7731;50.720;6.912;2023-06-26T02:02:51;99758.16;;;21.60;63.27
17072;BME280;7731;50.720;6.912;2023-06-26T02:05:22;99751.16;;;21.68;62.76
17072;BME280;7731;50.720;6.912;2023-06-26T02:07:53;99759.69;;;21.79;61.38
17072;BME280;7731;50.720;6.912;2023-06-26T02:10:23;99759.16;;;21.67;61.18
17072;BME280;7731;50.720;6.912;2023-06-26T02:12:53;99759.09;;;21.50;62.38
17072;BME280;7731;50.720;6.912;2023-06-26T02:15:26;99771.56;;;20.68;71.78
17072;BME280;7731;50.720;6.912;2023-06-26T02:17:56;99786.16;;;20.43;74.83
17072;BME280;7731;50.720;6.912;2023-06-26T02:20:29;99784.63;;;20.04;80.01
17072;BME280;7731;50.720;6.912;2023-06-26T02:23:00;99803.06;;;20.39;80.50
17072;BME280;7731;50.720;6.912;2023-06-26T02:25:31;99798.06;;;19.99;84.73
17072;BME280;7731;50.720;6.912;2023-06-26T02:28:01;99797.78;;;19.65;88.23
17072;BME280;7731;50.720;6.912;2023-06-26T02:30:34;99792.81;;;19.72;88.89
17072;BME280;7731;50.720;6.912;2023-06-26T02:33:04;99791.19;;;19.71;87.27
17072;BME280;7731;50.720;6.912;2023-06-26T02:35:38;99796.69;;;19.77;87.77
17072;BME280;7731;50.720;6.912;2023-06-26T02:38:08;99802.78;;;19.49;91.43
17072;BME280;7731;50.720;6.912;2023-06-26T02:40:40;99798.69;;;19.36;90.85
17072;BME280;7731;50.720;6.912;2023-06-26T02:43:10;99803.34;;;19.42;89.87
17072;BME280;7731;50.720;6.912;2023-06-26T02:45:48;99804.72;;;19.47;89.82
17072;BME280;7731;50.720;6.912;2023-06-26T02:48:25;99806.69;;;19.72;89.04
17072;BME280;7731;50.720;6.912;2023-06-26T02:50:56;99810.69;;;19.67;89.61
17072;BME280;7731;50.720;6.912;2023-06-26T02:53:26;99808.34;;;19.26;98.50
17072;BME280;7731;50.720;6.912;2023-06-26T02:55:59;99804.50;;;19.20;96.63
17072;BME280;7731;50.720;6.912;2023-06-26T02:58:36;99821.09;;;19.29;95.27
17072;BME280;7731;50.720;6.912;2023-06-26T03:01:08;99827.53;;;19.05;98.83
17072;BME280;7731;50.720;6.912;2023-06-26T03:03:42;99826.69;;;19.34;97.09
17072;BME280;7731;50.720;6.912;2023-06-26T03:06:17;99828.22;;;19.17;99.75
17072;BME280;7731;50.720;6.912;2023-06-26T03:08:57;99833.03;;;19.12;99.59
17072;BME280;7731;50.720;6.912;2023-06-26T03:11:30;99825.88;;;19.24;97.63
17072;BME280;7731;50.720;6.912;2023-06-26T03:14:00;99832.75;;;19.15;99.00
17072;BME280;7731;50.720;6.912;2023-06-26T03:16:33;99834.66;;;19.23;98.55
17072;BME280;7731;50.720;6.912;2023-06-26T03:19:03;99825.34;;;19.11;98.07
17072;BME280;7731;50.720;6.912;2023-06-26T03:21:34;99828.34;;;19.25;97.23
17072;BME280;7731;50.720;6.912;2023-06-26T03:24:05;99839.88;;;19.23;98.95
17072;BME280;7731;50.720;6.912;2023-06-26T03:26:36;99838.25;;;19.12;98.01
17072;BME280;7731;50.720;6.912;2023-06-26T03:29:06;99839.88;;;19.03;100.00
17072;BME280;7731;50.720;6.912;2023-06-26T03:31:39;99839.06;;;19.13;99.76
17072;BME280;7731;50.720;6.912;2023-06-26T03:34:12;99842.88;;;19.28;97.65
17072;BME280;7731;50.720;6.912;2023-06-26T03:36:45;99842.06;;;19.27;97.57
17072;BME280;7731;50.720;6.912;2023-06-26T03:39:16;99845.47;;;19.28;99.06
17072;BME280;7731;50.720;6.912;2023-06-26T03:41:49;99838.75;;;19.35;99.10
17072;BME280;7731;50.720;6.912;2023-06-26T03:44:22;99836.53;;;19.40;98.13
17072;BME280;7731;50.720;6.912;2023-06-26T03:46:57;99849.44;;;19.42;97.17
17072;BME280;7731;50.720;6.912;2023-06-26T03:49:28;99847.78;;;19.51;96.93
17072;BME280;7731;50.720;6.912;2023-06-26T03:51:58;99850.47;;;19.59;96.57
17072;BME280;7731;50.720;6.912;2023-06-26T03:54:34;99849.13;;;19.55;97.33
17072;BME280;7731;50.720;6.912;2023-06-26T03:57:08;99848.25;;;19.64;97.54
17072;BME280;7731;50.720;6.912;2023-06-26T03:59:38;99853.69;;;20.00;90.36
17072;BME280;7731;50.720;6.912;2023-06-26T04:02:11;99848.53;;;20.36;86.82
17072;BME280;7731;50.720;6.912;2023-06-26T04:04:44;99851.00;;;20.10;87.06
17072;BME280;7731;50.720;6.912;2023-06-26T04:07:16;99857.31;;;19.79;91.23
17072;BME280;7731;50.720;6.912;2023-06-26T04:09:47;99853.47;;;20.11;88.08
17072;BME280;7731;50.720;6.912;2023-06-26T04:12:17;99863.59;;;19.87;89.01
17072;BME280;7731;50.720;6.912;2023-06-26T04:14:48;99859.09;;;20.16;86.82
17072;BME280;7731;50.720;6.912;2023-06-26T04:17:20;99870.50;;;20.15;86.83
17072;BME280;7731;50.720;6.912;2023-06-26T04:19:53;99868.84;;;20.14;87.49
17072;BME280;7731;50.720;6.912;2023-06-26T04:22:26;99865.75;;;20.29;86.11
17072;BME280;7731;50.720;6.912;2023-06-26T04:24:57;99876.09;;;20.21;87.87
17072;BME280;7731;50.720;6.912;2023-06-26T04:27:27;99882.16;;;20.11;89.58
17072;BME280;7731;50.720;6.912;2023-06-26T04:30:04;99888.69;;;20.25;89.01
17072;BME280;7731;50.720;6.912;2023-06-26T04:32:45;99887.50;;;20.47;88.43
17072;BME280;7731;50.720;6.912;2023-06-26T04:35:18;99887.69;;;20.36;88.10
17072;BME280;7731;50.720;6.912;2023-06-26T04:37:48;99886.66;;;20.93;83.55
17072;BME280;7731;50.720;6.912;2023-06-26T04:40:36;99884.25;;;21.53;78.37
17072;BME280;7731;50.720;6.912;2023-06-26T04:43:07;99889.84;;;21.40;79.14
17072;BME280;7731;50.720;6.912;2023-06-26T04:45:37;99889.63;;;20.98;82.77
17072;BME280;7731;50.720;6.912;2023-06-26T04:48:13;99887.91;;;20.88;84.13
17072;BME280;7731;50.720;6.912;2023-06-26T04:50:46;99900.53;;;21.11;83.28
17072;BME280;7731;50.720;6.912;2023-06-26T04:53:22;99902.69;;;21.34;83.26
17072;BME280;7731;50.720;6.912;2023-06-26T04:55:53;99898.88;;;21.46;82.93
17072;BME280;7731;50.720;6.912;2023-06-26T04:58:23;99901.44;;;21.38;85.12
17072;BME280;7731;50.720;6.912;2023-06-26T05:00:53;99914.16;;;21.59;82.10
17072;BME280;7731;50.720;6.912;2023-06-26T05:03:33;99914.72;;;21.27;83.25
17072;BME280;7731;50.720;6.912;2023-06-26T05:06:04;99913.81;;;21.36;83.03
17072;BME280;7731;50.720;6.912;2023-06-26T05:08:37;99913.41;;;21.22;84.67
17072;BME280;7731;50.720;6.912;2023-06-26T05:11:13;99919.63;;;21.66;81.87
17072;BME280;7731;50.720;6.912;2023-06-26T05:13:46;99913.63;;;22.93;76.35
17072;BME280;7731;50.720;6.912;2023-06-26T05:16:17;99915.59;;;23.74;70.93
17072;BME280;7731;50.720;6.912;2023-06-26T05:18:57;99905.00;;;24.86;66.19
17072;BME280;7731;50.720;6.912;2023-06-26T05:21:34;99909.59;;;24.13;69.36
17072;BME280;7731;50.720;6.912;2023-06-26T05:24:06;99916.38;;;24.47;66.63
17072;BME280;7731;50.720;6.912;2023-06-26T05:26:38;99917.31;;;24.54;64.66
17072;BME280;7731;50.720;6.912;2023-06-26T05:29:09;99911.59;;;25.51;60.04
17072;BME280;7731;50.720;6.912;2023-06-26T05:31:41;99917.84;;;24.01;65.18
17072;BME280;7731;50.720;6.912;2023-06-26T05:34:20;99926.56;;;24.41;63.94
17072;BME280;7731;50.720;6.912;2023-06-26T05:36:58;99929.31;;;24.00;62.90
17072;BME280;7731;50.720;6.912;2023-06-26T05:39:42;99929.03;;;23.79;64.74
17072;BME280;7731;50.720;6.912;2023-06-26T05:42:15;99930.72;;;23.47;67.17
17072;BME280;7731;50.720;6.912;2023-06-26T05:44:45;99927.75;;;23.58;67.62
17072;BME280;7731;50.720;6.912;2023-06-26T05:47:18;99931.09;;;24.16;63.15
17072;BME280;7731;50.720;6.912;2023-06-26T05:49:51;99930.38;;;23.58;64.56
17072;BME280;7731;50.720;6.912;2023-06-26T05:52:23;99939.66;;;24.02;63.90
17072;BME280;7731;50.720;6.912;2023-06-26T05:54:54;99933.75;;;24.48;62.54
17072;BME280;7731;50.720;6.912;2023-06-26T05:57:28;99924.63;;;24.98;60.92
17072;BME280;7731;50.720;6.912;2023-06-26T06:00:02;99931.28;;;27.24;52.78
17072;BME280;7731;50.720;6.912;2023-06-26T06:02:38;99935.84;;;28.22;48.39
17072;BME280;7731;50.720;6.912;2023-06-26T06:05:11;99938.47;;;28.15;49.65
17072;BME280;7731;50.720;6.912;2023-06-26T06:07:41;99937.03;;;27.28;50.92
17072;BME280;7731;50.720;6.912;2023-06-26T06:10:12;99947.41;;;28.21;47.81
17072;BME280;7731;50.720;6.912;2023-06-26T06:12:45;99953.91;;;26.39;54.39
17072;BME280;7731;50.720;6.912;2023-06-26T06:15:18;99948.81;;;25.17;60.05
17072;BME280;7731;50.720;6.912;2023-06-26T06:17:48;99954.16;;;24.37;63.65
17072;BME280;7731;50.720;6.912;2023-06-26T06:20:21;99964.97;;;23.45;69.30
17072;BME280;7731;50.720;6.912;2023-06-26T06:22:51;99958.13;;;22.85;73.49
17072;BME280;7731;50.720;6.912;2023-06-26T06:25:24;99966.56;;;23.71;68.32
17072;BME280;7731;50.720;6.912;2023-06-26T06:27:54;99961.03;;;24.38;66.12
17072;BME280;7731;50.720;6.912;2023-06-26T06:30:33;99966.78;;;24.42;65.83
17072;BME280;7731;50.720;6.912;2023-06-26T06:33:12;99971.22;;;25.04;63.23
17072;BME280;7731;50.720;6.912;2023-06-26T06:35:52;99984.78;;;24.05;67.46
17072;BME280;7731;50.720;6.912;2023-06-26T06:38:22;99988.72;;;23.85;69.55
17072;BME280;7731;50.720;6.912;2023-06-26T06:40:52;99988.88;;;23.50;71.55
17072;BME280;7731;50.720;6.912;2023-06-26T06:43:23;99982.56;;;22.94;73.81
17072;BME280;7731;50.720;6.912;2023-06-26T06:45:53;99990.19;;;22.10;79.98
17072;BME280;7731;50.720;6.912;2023-06-26T06:48:23;100000.94;;;22.07;83.73
17072;BME280;7731;50.720;6.912;2023-06-26T06:50:57;100003.75;;;22.32;81.64
17072;BME280;7731;50.720;6.912;2023-06-26T06:53:27;100002.13;;;23.32;74.20
17072;BME280;7731;50.720;6.912;2023-06-26T06:55:57;99990.84;;;23.98;70.04
17072;BME280;7731;50.720;6.912;2023-06-26T06:58:30;99988.16;;;25.02;65.97
17072;BME280;7731;50.720;6.912;2023-06-26T07:01:01;99993.97;;;23.93;68.65
17072;BME280;7731;50.720;6.912;2023-06-26T07:03:35;100006.41;;;23.25;74.43
17072;BME280;7731;50.720;6.912;2023-06-26T07:06:11;100017.25;;;24.04;70.55
17072;BME280;7731;50.720;6.912;2023-06-26T07:08:41;100014.78;;;26.14;59.69
17072;BME280;7731;50.720;6.912;2023-06-26T07:11:12;100025.69;;;24.39;66.33
17072;BME280;7731;50.720;6.912;2023-06-26T07:13:45;100018.59;;;25.51;63.10
17072;BME280;7731;50.720;6.912;2023-06-26T07:16:17;100019.78;;;25.86;62.31
17072;BME280;7731;50.720;6.912;2023-06-26T07:18:48;100015.97;;;27.73;54.38
17072;BME280;7731;50.720;6.912;2023-06-26T07:21:22;100014.72;;;27.47;54.16
17072;BME280;7731;50.720;6.912;2023-06-26T07:23:53;100026.94;;;26.75;55.84
17072;BME280;7731;50.720;6.912;2023-06-26T07:26:23;100039.91;;;25.01;63.41
17072;BME280;7731;50.720;6.912;2023-06-26T07:29:10;100046.00;;;25.25;62.71
17072;BME280;7731;50.720;6.912;2023-06-26T07:31:41;100048.72;;;24.04;68.95
17072;BME280;7731;50.720;6.912;2023-06-26T07:34:19;100043.28;;;24.39;69.77
17072;BME280;7731;50.720;6.912;2023-06-26T07:36:52;100042.66;;;24.76;71.02
17072;BME280;7731;50.720;6.912;2023-06-26T07:39:25;100042.44;;;25.49;64.56
17072;BME280;7731;50.720;6.912;2023-06-26T07:41:56;100040.94;;;25.55;64.29
17072;BME280;7731;50.720;6.912;2023-06-26T07:44:27;100041.06;;;27.04;56.84
17072;BME280;7731;50.720;6.912;2023-06-26T07:47:00;100057.41;;;25.17;64.39
17072;BME280;7731;50.720;6.912;2023-06-26T07:49:31;100060.22;;;24.12;70.47
17072;BME280;7731;50.720;6.912;2023-06-26T07:52:06;100050.91;;;26.50;59.09
17072;BME280;7731;50.720;6.912;2023-06-26T07:54:37;100045.84;;;25.96;61.08
17072;BME280;7731;50.720;6.912;2023-06-26T07:57:08;100054.69;;;26.03;59.96
17072;BME280;7731;50.720;6.912;2023-06-26T07:59:40;100040.44;;;27.60;53.53
17072;BME280;7731;50.720;6.912;2023-06-26T08:02:16;100053.91;;;26.17;58.29
17072;BME280;7731;50.720;6.912;2023-06-26T08:04:49;100044.84;;;27.16;55.02
17072;BME280;7731;50.720;6.912;2023-06-26T08:07:26;100045.63;;;27.53;54.20
17072;BME280;7731;50.720;6.912;2023-06-26T08:09:56;100051.53;;;28.68;50.05
17072;BME280;7731;50.720;6.912;2023-06-26T08:12:26;100043.84;;;29.42;45.00
17072;BME280;7731;50.720;6.912;2023-06-26T08:14:57;100058.31;;;26.70;52.72
17072;BME280;7731;50.720;6.912;2023-06-26T08:17:30;100050.13;;;28.03;49.49
17072;BME280;7731;50.720;6.912;2023-06-26T08:20:07;100058.13;;;28.86;46.59
17072;BME280;7731;50.720;6.912;2023-06-26T08:22:40;100046.09;;;30.84;41.92
17072;BME280;7731;50.720;6.912;2023-06-26T08:25:14;100060.97;;;30.06;42.22
17072;BME280;7731;50.720;6.912;2023-06-26T08:27:44;100069.53;;;27.95;47.89
17072;BME280;7731;50.720;6.912;2023-06-26T08:30:15;100067.91;;;30.01;42.12
17072;BME280;7731;50.720;6.912;2023-06-26T08:32:48;100062.72;;;32.56;37.31
17072;BME280;7731;50.720;6.912;2023-06-26T08:35:19;100061.00;;;31.56;38.84
17072;BME280;7731;50.720;6.912;2023-06-26T08:37:52;100068.03;;;31.05;39.38
17072;BME280;7731;50.720;6.912;2023-06-26T08:40:22;100074.00;;;29.95;42.05
17072;BME280;7731;50.720;6.912;2023-06-26T08:42:53;100069.06;;;30.32;41.40
17072;BME280;7731;50.720;6.912;2023-06-26T08:45:26;100076.00;;;29.46;44.26
17072;BME280;7731;50.720;6.912;2023-06-26T08:48:00;100076.47;;;29.96;42.20
17072;BME280;7731;50.720;6.912;2023-06-26T08:50:34;100081.72;;;29.56;42.78
17072;BME280;7731;50.720;6.912;2023-06-26T08:53:21;100085.75;;;28.42;45.58
17072;BME280;7731;50.720;6.912;2023-06-26T08:55:53;100093.13;;;27.96;47.44
17072;BME280;7731;50.720;6.912;2023-06-26T08:58:27;100092.91;;;28.20;46.17
17072;BME280;7731;50.720;6.912;2023-06-26T09:00:58;100095.38;;;27.35;48.20
17072;BME280;7731;50.720;6.912;2023-06-26T09:03:31;100090.66;;;29.42;43.83
17072;BME280;7731;50.720;6.912;2023-06-26T09:06:02;100098.63;;;27.37;47.72
17072;BME280;7731;50.720;6.912;2023-06-26T09:08:35;100108.53;;;27.50;47.15
17072;BME280;7731;50.720;6.912;2023-06-26T09:11:05;100100.03;;;25.44;53.36
17072;BME280;7731;50.720;6.912;2023-06-26T09:13:36;100091.03;;;28.42;46.18
17072;BME280;7731;50.720;6.912;2023-06-26T09:16:08;100089.84;;;30.55;39.58
17072;BME280;7731;50.720;6.912;2023-06-26T09:18:57;100087.78;;;29.36;41.98
17072;BME280;7731;50.720;6.912;2023-06-26T09:21:33;100099.97;;;27.11;45.80
17072;BME280;7731;50.720;6.912;2023-06-26T09:24:07;100100.81;;;28.48;42.96
17072;BME280;7731;50.720;6.912;2023-06-26T09:26:39;100107.00;;;29.03;41.09
17072;BME280;7731;50.720;6.912;2023-06-26T09:29:10;100115.31;;;27.37;44.60
17072;BME280;7731;50.720;6.912;2023-06-26T09:31:41;100117.38;;;24.74;51.71
17072;BME280;7731;50.720;6.912;2023-06-26T09:34:11;100106.06;;;26.37;46.92
17072;BME280;7731;50.720;6.912;2023-06-26T09:36:41;100091.53;;;27.52;44.68
17072;BME280;7731;50.720;6.912;2023-06-26T09:39:33;100106.66;;;26.77;46.81
17072;BME280;7731;50.720;6.912;2023-06-26T09:42:15;100098.69;;;28.02;42.46
17072;BME280;7731;50.720;6.912;2023-06-26T09:44:47;100104.72;;;29.62;38.44
17072;BME280;7731;50.720;6.912;2023-06-26T09:47:34;100100.31;;;29.83;38.49
17072;BME280;7731;50.720;6.912;2023-06-26T09:50:05;100093.09;;;30.57;36.89
17072;BME280;7731;50.720;6.912;2023-06-26T09:52:53;100105.34;;;29.57;37.39
17072;BME280;7731;50.720;6.912;2023-06-26T09:55:28;100107.13;;;27.32;43.73
17072;BME280;7731;50.720;6.912;2023-06-26T09:58:03;100107.19;;;26.19;46.42
17072;BME280;7731;50.720;6.912;2023-06-26T10:00:33;100116.19;;;27.44;44.39
17072;BME280;7731;50.720;6.912;2023-06-26T10:03:04;100117.72;;;27.75;42.19
17072;BME280;7731;50.720;6.912;2023-06-26T10:05:38;100126.19;;;26.68;43.52
17072;BME280;7731;50.720;6.912;2023-06-26T10:08:12;100116.69;;;27.55;40.69
17072;BME280;7731;50.720;6.912;2023-06-26T10:10:48;100122.84;;;27.25;41.40
17072;BME280;7731;50.720;6.912;2023-06-26T10:13:23;100130.59;;;27.85;41.02
17072;BME280;7731;50.720;6.912;2023-06-26T10:15:55;100130.00;;;27.47;42.45
17072;BME280;7731;50.720;6.912;2023-06-26T10:18:32;100141.16;;;27.12;42.38
17072;BME280;7731;50.720;6.912;2023-06-26T10:21:05;100139.91;;;26.25;44.38
17072;BME280;7731;50.720;6.912;2023-06-26T10:23:40;100142.34;;;26.95;42.19
17072;BME280;7731;50.720;6.912;2023-06-26T10:26:21;100132.28;;;30.15;34.85
17072;BME280;7731;50.720;6.912;2023-06-26T10:28:53;100146.00;;;29.23;37.10
17072;BME280;7731;50.720;6.912;2023-06-26T10:31:29;100145.09;;;29.16;35.85
17072;BME280;7731;50.720;6.912;2023-06-26T10:34:01;100153.31;;;27.28;39.01
17072;BME280;7731;50.720;6.912;2023-06-26T10:36:32;100154.56;;;26.43;41.58
17072;BME280;7731;50.720;6.912;2023-06-26T10:39:07;100159.75;;;25.90;41.86
17072;BME280;7731;50.720;6.912;2023-06-26T10:41:43;100151.22;;;28.18;37.44
17072;BME280;7731;50.720;6.912;2023-06-26T10:44:41;100167.03;;;26.64;40.84
17072;BME280;7731;50.720;6.912;2023-06-26T10:47:29;100166.28;;;25.94;43.08
17072;BME280;7731;50.720;6.912;2023-06-26T10:50:22;100154.94;;;29.29;36.97
17072;BME280;7731;50.720;6.912;2023-06-26T10:53:14;100160.25;;;27.87;38.68
17072;BME280;7731;50.720;6.912;2023-06-26T10:55:54;100162.06;;;28.02;38.24
17072;BME280;7731;50.720;6.912;2023-06-26T10:58:32;100163.25;;;28.84;36.35
17072;BME280;7731;50.720;6.912;2023-06-26T11:01:22;100163.06;;;28.01;35.76
17072;BME280;7731;50.720;6.912;2023-06-26T11:04:07;100153.47;;;28.78;33.11
17072;BME280;7731;50.720;6.912;2023-06-26T11:06:39;100157.47;;;29.64;32.42
17072;BME280;7731;50.720;6.912;2023-06-26T11:09:15;100143.78;;;28.92;32.75
17072;BME280;7731;50.720;6.912;2023-06-26T11:11:59;100147.34;;;28.71;33.87
17072;BME280;7731;50.720;6.912;2023-06-26T11:14:40;100157.81;;;26.98;37.13
17072;BME280;7731;50.720;6.912;2023-06-26T11:17:12;100169.69;;;26.64;37.17
17072;BME280;7731;50.720;6.912;2023-06-26T11:19:44;100164.53;;;26.85;38.08
17072;BME280;7731;50.720;6.912;2023-06-26T11:22:26;100171.22;;;28.06;33.91
17072;BME280;7731;50.720;6.912;2023-06-26T11:25:00;100159.41;;;28.23;34.70
17072;BME280;7731;50.720;6.912;2023-06-26T11:27:38;100167.56;;;28.57;32.50
17072;BME280;7731;50.720;6.912;2023-06-26T11:30:25;100172.63;;;28.80;33.73
17072;BME280;7731;50.720;6.912;2023-06-26T11:33:03;100168.59;;;28.91;33.88
17072;BME280;7731;50.720;6.912;2023-06-26T11:35:34;100182.13;;;28.46;35.74
17072;BME280;7731;50.720;6.912;2023-06-26T11:38:06;100171.81;;;26.83;37.86
17072;BME280;7731;50.720;6.912;2023-06-26T11:40:39;100179.88;;;25.82;40.20
17072;BME280;7731;50.720;6.912;2023-06-26T11:43:12;100171.88;;;27.20;38.00
17072;BME280;7731;50.720;6.912;2023-06-26T11:45:53;100176.44;;;26.96;37.80
17072;BME280;7731;50.720;6.912;2023-06-26T11:48:26;100167.25;;;27.07;37.07
17072;BME280;7731;50.720;6.912;2023-06-26T11:51:05;100182.84;;;27.90;35.96
17072;BME280;7731;50.720;6.912;2023-06-26T11:53:40;100181.75;;;28.27;35.90
17072;BME280;7731;50.720;6.912;2023-06-26T11:56:13;100183.63;;;27.90;34.96
17072;BME280;7731;50.720;6.912;2023-06-26T11:59:01;100194.19;;;26.11;37.99
17072;BME280;7731;50.720;6.912;2023-06-26T12:01:41;100194.59;;;25.92;38.71
17072;BME280;7731;50.720;6.912;2023-06-26T12:04:16;100182.69;;;26.65;36.57
17072;BME280;7731;50.720;6.912;2023-06-26T12:06:51;100195.31;;;25.85;38.50
17072;BME280;7731;50.720;6.912;2023-06-26T12:09:26;100198.94;;;26.54;36.88
17072;BME280;7731;50.720;6.912;2023-06-26T12:11:58;100203.75;;;25.41;37.51
17072;BME280;7731;50.720;6.912;2023-06-26T12:14:34;100204.94;;;25.39;37.58
17072;BME280;7731;50.720;6.912;2023-06-26T12:17:17;100207.53;;;26.10;37.27
17072;BME280;7731;50.720;6.912;2023-06-26T12:19:47;100191.34;;;26.74;36.30
17072;BME280;7731;50.720;6.912;2023-06-26T12:22:18;100196.22;;;27.52;35.17
17072;BME280;7731;50.720;6.912;2023-06-26T12:24:49;100196.13;;;28.18;34.46
17072;BME280;7731;50.720;6.912;2023-06-26T12:27:19;100203.41;;;28.16;31.00
17072;BME280;7731;50.720;6.912;2023-06-26T12:29:53;100196.41;;;27.50;29.40
17072;BME280;7731;50.720;6.912;2023-06-26T12:32:26;100194.25;;;27.54;31.14
17072;BME280;7731;50.720;6.912;2023-06-26T12:34:57;100208.53;;;26.70;34.15
17072;BME280;7731;50.720;6.912;2023-06-26T12:37:28;100208.78;;;26.14;35.48
17072;BME280;7731;50.720;6.912;2023-06-26T12:40:16;100205.56;;;26.88;34.17
17072;BME280;7731;50.720;6.912;2023-06-26T12:42:46;100216.78;;;26.67;33.76
17072;BME280;7731;50.720;6.912;2023-06-26T12:45:17;100227.03;;;25.61;35.19
17072;BME280;7731;50.720;6.912;2023-06-26T12:48:07;100222.16;;;25.49;36.47
17072;BME280;7731;50.720;6.912;2023-06-26T12:50:43;100216.16;;;25.64;38.25
17072;BME280;7731;50.720;6.912;2023-06-26T12:53:15;100230.00;;;26.20;36.60
17072;BME280;7731;50.720;6.912;2023-06-26T12:55:46;100242.13;;;26.22;37.89
17072;BME280;7731;50.720;6.912;2023-06-26T12:58:16;100243.97;;;26.82;34.59
17072;BME280;7731;50.720;6.912;2023-06-26T13:00:49;100217.00;;;28.13;31.84
17072;BME280;7731;50.720;6.912;2023-06-26T13:03:23;100214.69;;;27.67;32.10
17072;BME280;7731;50.720;6.912;2023-06-26T13:05:57;100216.53;;;26.91;34.66
17072;BME280;7731;50.720;6.912;2023-06-26T13:08:27;100214.25;;;27.18;32.62
17072;BME280;7731;50.720;6.912;2023-06-26T13:10:58;100209.09;;;28.13;32.14
17072;BME280;7731;50.720;6.912;2023-06-26T13:13:31;100215.41;;;27.75;31.98
17072;BME280;7731;50.720;6.912;2023-06-26T13:16:05;100223.72;;;27.27;32.50
17072;BME280;7731;50.720;6.912;2023-06-26T13:18:38;100204.66;;;28.42;31.74
17072;BME280;7731;50.720;6.912;2023-06-26T13:21:08;100209.28;;;28.40;31.07
17072;BME280;7731;50.720;6.912;2023-06-26T13:23:38;100219.91;;;27.30;32.41
17072;BME280;7731;50.720;6.912;2023-06-26T13:26:09;100216.13;;;26.27;32.75
17072;BME280;7731;50.720;6.912;2023-06-26T13:29:00;100208.75;;;27.43;31.78
17072;BME280;7731;50.720;6.912;2023-06-26T13:31:30;100216.09;;;28.27;31.96
17072;BME280;7731;50.720;6.912;2023-06-26T13:34:24;100225.81;;;27.47;33.37
17072;BME280;7731;50.720;6.912;2023-06-26T13:36:57;100232.63;;;26.97;34.26
17072;BME280;7731;50.720;6.912;2023-06-26T13:39:28;100235.69;;;25.70;36.21
17072;BME280;7731;50.720;6.912;2023-06-26T13:41:59;100239.53;;;26.60;35.19